createdAt,value
2023-03-17T00:01:23.006Z,5.47
2023-03-17T00:03:58.955Z,5.85
2023-03-17T00:08:59.359Z,6.00
2023-03-17T00:11:29.525Z,6.68
2023-03-17T00:14:03.429Z,6.55
2023-03-17T00:16:35.765Z,7.72
2023-03-17T00:19:05.662Z,5.85
2023-03-17T00:22:06.746Z,6.75
2023-03-17T00:24:43.454Z,7.03
2023-03-17T00:27:16.127Z,6.55
2023-03-17T00:29:56.886Z,6.40
2023-03-17T00:32:27.649Z,6.72
2023-03-17T00:34:59.416Z,7.00
2023-03-17T00:37:27.793Z,6.03
2023-03-17T00:39:59.103Z,7.07
2023-03-17T00:42:29.656Z,6.60
2023-03-17T00:45:00.077Z,6.35
2023-03-17T00:48:24.316Z,6.13
2023-03-17T00:50:56.200Z,6.85
2023-03-17T00:53:26.058Z,6.15
2023-03-17T00:55:56.500Z,8.05
2023-03-17T00:58:29.970Z,7.65
2023-03-17T01:01:24.545Z,6.13
2023-03-17T01:03:58.183Z,6.35
2023-03-17T01:07:22.598Z,7.10
2023-03-17T01:10:21.304Z,7.15
2023-03-17T01:12:52.353Z,6.20
2023-03-17T01:15:23.151Z,6.28
2023-03-17T01:17:54.354Z,7.13
2023-03-17T01:20:26.431Z,6.60
2023-03-17T01:22:55.989Z,6.15
2023-03-17T01:25:54.773Z,6.95
2023-03-17T01:28:25.577Z,6.72
2023-03-17T01:30:59.744Z,6.82
2023-03-17T01:33:33.754Z,7.03
2023-03-17T01:36:04.185Z,6.55
2023-03-17T01:38:36.658Z,7.20
2023-03-17T01:41:06.722Z,7.05
2023-03-17T01:43:38.590Z,6.25
2023-03-17T01:46:34.374Z,6.32
2023-03-17T01:49:15.723Z,6.65
2023-03-17T01:51:56.272Z,6.72
2023-03-17T01:54:32.962Z,6.28
2023-03-17T01:57:12.674Z,5.85
2023-03-17T01:59:51.633Z,6.75
2023-03-17T02:02:31.047Z,6.57
2023-03-17T02:05:12.745Z,6.07
2023-03-17T02:07:43.004Z,5.68
2023-03-17T02:10:42.171Z,7.13
2023-03-17T02:13:16.890Z,6.65
2023-03-17T02:15:50.250Z,6.05
2023-03-17T02:18:25.976Z,6.17
2023-03-17T02:21:31.464Z,6.18
2023-03-17T02:24:05.492Z,5.95
2023-03-17T02:26:40.003Z,6.03
2023-03-17T02:29:36.122Z,5.75
2023-03-17T02:32:07.373Z,6.25
2023-03-17T02:35:01.830Z,6.68
2023-03-17T02:37:36.788Z,5.85
2023-03-17T02:40:11.463Z,5.90
2023-03-17T02:42:43.881Z,6.35
2023-03-17T02:45:16.669Z,5.45
2023-03-17T02:47:53.274Z,5.90
2023-03-17T02:50:31.741Z,5.47
2023-03-17T02:53:02.719Z,5.10
2023-03-17T02:55:33.904Z,6.15
2023-03-17T02:58:05.777Z,5.22
2023-03-17T03:00:38.810Z,6.18
2023-03-17T03:03:08.148Z,5.68
2023-03-17T03:05:37.689Z,5.05
2023-03-17T03:08:12.630Z,6.10
2023-03-17T03:10:43.228Z,5.53
2023-03-17T03:13:11.737Z,6.38
2023-03-17T03:15:43.447Z,6.22
2023-03-17T03:18:15.754Z,6.53
2023-03-17T03:20:46.474Z,6.63
2023-03-17T03:23:18.808Z,6.53
2023-03-17T03:26:37.237Z,6.65
2023-03-17T03:29:09.196Z,6.65
2023-03-17T03:31:41.411Z,6.80
2023-03-17T03:34:10.688Z,6.00
2023-03-17T03:36:51.460Z,6.40
2023-03-17T03:40:10.107Z,6.10
2023-03-17T03:43:22.291Z,6.28
2023-03-17T03:45:54.730Z,7.00
2023-03-17T03:48:24.159Z,6.80
2023-03-17T03:50:52.432Z,5.70
2023-03-17T03:53:49.532Z,5.50
2023-03-17T03:56:19.863Z,5.97
2023-03-17T03:58:54.092Z,5.57
2023-03-17T04:01:27.541Z,6.55
2023-03-17T04:03:56.841Z,6.68
2023-03-17T04:06:30.291Z,6.10
2023-03-17T04:09:03.692Z,6.70
2023-03-17T04:11:44.262Z,6.15
2023-03-17T04:14:16.041Z,6.28
2023-03-17T04:16:50.367Z,6.68
2023-03-17T04:19:23.670Z,6.40
2023-03-17T04:21:55.578Z,6.65
2023-03-17T04:24:23.916Z,5.53
2023-03-17T04:27:19.393Z,5.57
2023-03-17T04:29:51.074Z,5.55
2023-03-17T04:32:20.452Z,6.32
2023-03-17T04:34:49.858Z,5.30
2023-03-17T04:37:18.154Z,5.60
2023-03-17T04:39:46.633Z,6.45
2023-03-17T04:42:15.376Z,5.68
2023-03-17T04:45:09.564Z,5.57
2023-03-17T04:47:43.209Z,4.88
2023-03-17T04:50:37.289Z,5.38
2023-03-17T04:53:10.413Z,5.50
2023-03-17T04:55:40.943Z,6.63
2023-03-17T04:58:11.780Z,5.63
2023-03-17T05:00:42.917Z,5.10
2023-03-17T05:03:26.408Z,5.68
2023-03-17T05:06:07.300Z,4.90
2023-03-17T05:08:36.906Z,4.78
2023-03-17T05:11:07.372Z,4.68
2023-03-17T05:13:44.992Z,5.05
2023-03-17T05:16:44.488Z,5.35
2023-03-17T05:19:27.093Z,5.25
2023-03-17T05:22:01.187Z,4.90
2023-03-17T05:25:22.136Z,4.97
2023-03-17T05:27:51.464Z,4.47
2023-03-17T05:30:24.063Z,5.40
2023-03-17T05:32:53.040Z,4.80
2023-03-17T05:35:22.804Z,4.97
2023-03-17T05:38:19.541Z,4.75
2023-03-17T05:41:18.434Z,4.38
2023-03-17T05:44:08.723Z,5.20
2023-03-17T05:47:04.496Z,5.22
2023-03-17T05:49:32.879Z,5.63
2023-03-17T05:52:04.706Z,6.20
2023-03-17T05:54:39.082Z,5.78
2023-03-17T05:57:31.767Z,6.85
2023-03-17T06:00:01.289Z,6.93
2023-03-17T06:02:33.729Z,7.60
2023-03-17T06:05:03.740Z,9.07
2023-03-17T06:07:50.842Z,11.02
2023-03-17T06:10:22.601Z,13.15
2023-03-17T06:12:51.279Z,15.52
2023-03-17T06:15:20.837Z,17.58
2023-03-17T06:17:50.166Z,24.80
2023-03-17T06:20:18.827Z,20.65
2023-03-17T06:23:03.171Z,22.15
2023-03-17T06:25:35.605Z,20.80
2023-03-17T06:28:12.285Z,22.42
2023-03-17T06:30:42.650Z,16.02
2023-03-17T06:33:14.831Z,12.02
2023-03-17T06:35:43.275Z,10.25
2023-03-17T06:38:22.255Z,7.40
2023-03-17T06:40:54.699Z,6.72
2023-03-17T06:43:25.372Z,6.30
2023-03-17T06:45:54.767Z,5.28
2023-03-17T06:48:30.345Z,4.63
2023-03-17T06:50:59.826Z,5.30
2023-03-17T06:53:32.643Z,4.82
2023-03-17T06:56:05.173Z,4.80
2023-03-17T06:58:35.562Z,5.70
2023-03-17T07:01:05.641Z,6.05
2023-03-17T07:03:39.654Z,5.65
2023-03-17T07:06:09.945Z,5.88
2023-03-17T07:08:46.722Z,6.22
2023-03-17T07:11:17.254Z,5.05
2023-03-17T07:14:03.293Z,5.28
2023-03-17T07:16:33.323Z,5.03
2023-03-17T07:19:02.992Z,5.15
2023-03-17T07:21:42.501Z,5.13
2023-03-17T07:24:14.482Z,5.53
2023-03-17T07:26:49.248Z,5.85
2023-03-17T07:29:22.887Z,5.25
2023-03-17T07:31:53.978Z,5.25
2023-03-17T07:34:26.739Z,4.70
2023-03-17T07:37:08.436Z,4.10
2023-03-17T07:39:39.875Z,4.78
2023-03-17T07:42:17.234Z,4.03
2023-03-17T07:44:49.709Z,4.00
2023-03-17T07:47:23.139Z,3.63
2023-03-17T07:49:52.598Z,3.95
2023-03-17T07:52:26.383Z,5.15
2023-03-17T07:55:00.824Z,3.13
2023-03-17T07:57:34.313Z,4.00
2023-03-17T08:00:04.245Z,4.65
2023-03-17T08:02:48.189Z,3.33
2023-03-17T08:05:20.092Z,3.05
2023-03-17T08:07:53.768Z,3.95
2023-03-17T08:10:24.689Z,4.45
2023-03-17T08:12:55.082Z,4.15
2023-03-17T08:15:26.794Z,3.85
2023-03-17T08:17:55.189Z,4.03
2023-03-17T08:20:23.528Z,3.90
2023-03-17T08:22:56.155Z,3.60
2023-03-17T08:25:28.626Z,3.58
2023-03-17T08:28:00.023Z,3.35
2023-03-17T08:30:54.712Z,3.35
2023-03-17T08:33:25.190Z,4.20
2023-03-17T08:35:59.235Z,4.32
2023-03-17T08:38:30.474Z,4.05
2023-03-17T08:41:03.737Z,3.00
2023-03-17T08:43:34.972Z,2.97
2023-03-17T08:46:08.166Z,2.70
2023-03-17T08:48:37.958Z,2.90
2023-03-17T08:51:07.680Z,2.38
2023-03-17T08:53:40.062Z,3.08
2023-03-17T08:56:10.522Z,2.70
2023-03-17T08:58:40.611Z,2.97
2023-03-17T09:01:14.636Z,2.47
2023-03-17T09:03:47.336Z,3.08
2023-03-17T09:06:18.163Z,2.40
2023-03-17T09:08:47.768Z,2.15
2023-03-17T09:11:23.611Z,2.45
2023-03-17T09:14:04.262Z,3.30
2023-03-17T09:16:35.066Z,2.53
2023-03-17T09:19:08.745Z,2.50
2023-03-17T09:21:37.227Z,3.17
2023-03-17T09:24:12.589Z,2.90
2023-03-17T09:27:08.857Z,4.10
2023-03-17T09:29:42.514Z,3.00
2023-03-17T09:32:11.346Z,3.83
2023-03-17T09:34:40.674Z,3.47
2023-03-17T09:37:11.036Z,3.28
2023-03-17T09:39:40.387Z,3.20
2023-03-17T09:42:49.111Z,2.85
2023-03-17T09:45:31.465Z,3.03
2023-03-17T09:48:19.816Z,3.00
2023-03-17T09:50:53.785Z,3.58
2023-03-17T09:53:34.169Z,2.67
2023-03-17T09:56:12.612Z,2.95
2023-03-17T09:59:18.298Z,2.67
2023-03-17T10:01:52.741Z,1.90
2023-03-17T10:04:23.137Z,2.35
2023-03-17T10:06:56.614Z,2.67
2023-03-17T10:09:29.946Z,2.78
2023-03-17T10:12:11.437Z,2.17
2023-03-17T10:14:55.770Z,3.00
2023-03-17T10:17:31.898Z,2.80
2023-03-17T10:20:05.600Z,2.72
2023-03-17T10:22:41.904Z,2.40
2023-03-17T10:25:16.171Z,2.80
2023-03-17T10:27:50.352Z,2.85
2023-03-17T10:30:23.640Z,2.63
2023-03-17T10:33:00.208Z,2.30
2023-03-17T10:35:29.122Z,2.47
2023-03-17T10:38:13.798Z,2.88
2023-03-17T10:40:57.241Z,2.30
2023-03-17T10:43:32.019Z,2.80
2023-03-17T10:46:04.605Z,2.60
2023-03-17T10:48:39.087Z,2.38
2023-03-17T10:51:21.837Z,2.70
2023-03-17T10:53:54.528Z,2.58
2023-03-17T10:56:30.290Z,2.88
2023-03-17T10:59:07.107Z,2.53
2023-03-17T11:01:41.532Z,2.70
2023-03-17T11:04:31.342Z,2.50
2023-03-17T11:07:10.165Z,3.55
2023-03-17T11:10:05.987Z,2.80
2023-03-17T11:12:44.187Z,2.80
2023-03-17T11:15:16.722Z,2.65
2023-03-17T11:18:00.582Z,2.88
2023-03-17T11:20:44.926Z,2.78
2023-03-17T11:24:11.532Z,2.97
2023-03-17T11:27:13.237Z,2.67
2023-03-17T11:29:54.529Z,3.00
2023-03-17T11:32:32.814Z,3.13
2023-03-17T11:35:20.958Z,2.90
2023-03-17T11:38:20.552Z,3.17
2023-03-17T11:41:32.930Z,2.47
2023-03-17T11:44:52.075Z,2.90
2023-03-17T11:48:10.571Z,2.60
2023-03-17T11:50:46.000Z,3.53
2023-03-17T11:53:44.428Z,3.33
2023-03-17T11:56:18.499Z,7.28
2023-03-17T11:58:57.264Z,3.38
2023-03-17T12:01:37.919Z,2.78
2023-03-17T12:04:30.238Z,3.13
2023-03-17T12:07:13.684Z,2.70
2023-03-17T12:09:45.750Z,3.28
2023-03-17T12:12:42.883Z,3.10
2023-03-17T12:15:33.900Z,2.92
2023-03-17T12:18:30.948Z,3.13
2023-03-17T12:21:04.512Z,3.20
2023-03-17T12:23:39.114Z,2.78
2023-03-17T12:26:14.650Z,2.70
2023-03-17T12:28:48.451Z,3.10
2023-03-17T12:31:55.475Z,3.10
2023-03-17T12:34:30.520Z,3.22
2023-03-17T12:37:03.834Z,2.80
2023-03-17T12:39:37.335Z,3.00
2023-03-17T12:42:29.091Z,3.00
2023-03-17T12:45:25.240Z,3.45
2023-03-17T12:48:11.737Z,3.30
2023-03-17T12:51:09.579Z,2.90
2023-03-17T12:53:40.031Z,2.95
2023-03-17T12:56:35.694Z,2.78
2023-03-17T12:59:08.820Z,2.83
2023-03-17T13:01:41.789Z,3.25
2023-03-17T13:04:19.287Z,3.17
2023-03-17T13:07:03.318Z,3.33
2023-03-17T13:09:50.860Z,2.83
2023-03-17T13:13:06.608Z,2.80
2023-03-17T13:15:59.695Z,2.70
2023-03-17T13:19:09.569Z,2.92
2023-03-17T13:21:39.401Z,2.70
2023-03-17T13:24:48.517Z,3.05
2023-03-17T13:27:54.813Z,2.60
2023-03-17T13:31:08.941Z,3.05
2023-03-17T13:33:45.975Z,2.80
2023-03-17T13:36:50.765Z,2.60
2023-03-17T13:40:11.047Z,3.35
2023-03-17T13:43:01.632Z,2.90
2023-03-17T13:45:39.656Z,3.00
2023-03-17T13:48:44.486Z,2.72
2023-03-17T13:51:22.199Z,2.70
2023-03-17T13:54:30.815Z,2.47
2023-03-17T13:57:21.464Z,2.72
2023-03-17T14:00:02.297Z,2.60
2023-03-17T14:02:41.203Z,2.85
2023-03-17T14:05:23.293Z,3.13
2023-03-17T14:08:03.858Z,2.22
2023-03-17T14:10:37.427Z,2.80
2023-03-17T14:13:22.940Z,2.85
2023-03-17T14:16:04.038Z,2.72
2023-03-17T14:18:35.378Z,2.70
2023-03-17T14:21:10.559Z,2.80
2023-03-17T14:23:41.092Z,2.92
2023-03-17T14:26:13.609Z,2.60
2023-03-17T14:29:01.796Z,2.45
2023-03-17T14:31:33.182Z,2.30
2023-03-17T14:34:07.303Z,2.55
2023-03-17T14:36:39.681Z,2.22
2023-03-17T14:39:09.698Z,2.75
2023-03-17T14:41:43.084Z,2.67
2023-03-17T14:44:43.589Z,2.80
2023-03-17T14:47:40.812Z,2.30
2023-03-17T14:50:18.839Z,2.58
2023-03-17T14:52:51.390Z,2.75
2023-03-17T14:55:22.215Z,2.42
2023-03-17T14:57:53.801Z,2.15
2023-03-17T15:00:36.506Z,2.70
2023-03-17T15:03:20.761Z,2.53
2023-03-17T15:05:51.314Z,2.20
2023-03-17T15:08:42.872Z,3.30
2023-03-17T15:11:20.560Z,2.70
2023-03-17T15:13:55.250Z,1.95
2023-03-17T15:16:30.004Z,2.20
2023-03-17T15:19:25.851Z,2.42
2023-03-17T15:22:00.635Z,2.50
2023-03-17T15:24:40.671Z,2.50
2023-03-17T15:27:16.408Z,2.47
2023-03-17T15:29:45.708Z,2.50
2023-03-17T15:32:23.631Z,2.40
2023-03-17T15:34:56.704Z,2.63
2023-03-17T15:37:33.334Z,2.97
2023-03-17T15:40:09.485Z,2.40
2023-03-17T15:42:46.634Z,2.05
2023-03-17T15:45:17.133Z,2.20
2023-03-17T15:47:47.592Z,2.38
2023-03-17T15:50:28.720Z,2.83
2023-03-17T15:52:58.224Z,2.28
2023-03-17T15:55:29.566Z,2.70
2023-03-17T15:57:58.128Z,3.05
2023-03-17T16:00:29.994Z,2.80
2023-03-17T16:03:19.302Z,2.70
2023-03-17T16:05:52.941Z,2.42
2023-03-17T16:08:37.825Z,2.58
2023-03-17T16:11:07.882Z,3.13
2023-03-17T16:13:41.313Z,2.80
2023-03-17T16:16:18.515Z,2.92
2023-03-17T16:19:07.218Z,2.60
2023-03-17T16:21:37.295Z,3.35
2023-03-17T16:24:07.640Z,2.40
2023-03-17T16:26:44.137Z,2.70
2023-03-17T16:29:17.370Z,2.50
2023-03-17T16:31:59.098Z,2.58
2023-03-17T16:34:30.870Z,3.05
2023-03-17T16:37:29.052Z,2.75
2023-03-17T16:40:58.661Z,2.95
2023-03-17T16:43:30.786Z,2.78
2023-03-17T16:46:00.741Z,2.58
2023-03-17T16:48:32.331Z,2.80
2023-03-17T16:51:27.273Z,2.83
2023-03-17T16:53:59.574Z,2.50
2023-03-17T16:56:54.544Z,2.95
2023-03-17T16:59:34.330Z,2.90
2023-03-17T17:02:03.595Z,3.00
2023-03-17T17:04:38.662Z,3.10
2023-03-17T17:07:10.752Z,2.97
2023-03-17T17:09:46.309Z,2.67
2023-03-17T17:12:18.004Z,3.28
2023-03-17T17:14:49.893Z,3.30
2023-03-17T17:18:21.936Z,3.45
2023-03-17T17:21:17.446Z,3.47
2023-03-17T17:24:19.532Z,3.13
2023-03-17T17:26:51.268Z,3.70
2023-03-17T17:30:20.197Z,2.95
2023-03-17T17:33:14.565Z,3.30
2023-03-17T17:36:02.538Z,3.35
2023-03-17T17:39:00.206Z,3.60
2023-03-17T17:41:46.078Z,4.03
2023-03-17T17:44:19.519Z,3.80
2023-03-17T17:46:49.855Z,4.07
2023-03-17T17:49:20.330Z,3.63
2023-03-17T17:51:49.342Z,3.83
2023-03-17T17:54:20.223Z,4.22
2023-03-17T17:56:53.515Z,4.30
2023-03-17T17:59:27.873Z,4.78
2023-03-17T18:02:04.992Z,4.30
2023-03-17T18:04:38.502Z,4.78
2023-03-17T18:07:09.013Z,4.45
2023-03-17T18:09:41.221Z,5.03
2023-03-17T18:12:12.674Z,4.88
2023-03-17T18:14:50.100Z,5.60
2023-03-17T18:17:22.375Z,5.05
2023-03-17T18:19:58.894Z,4.60
2023-03-17T18:22:35.249Z,5.07
2023-03-17T18:25:09.340Z,4.45
2023-03-17T18:27:56.274Z,5.53
2023-03-17T18:30:32.368Z,4.60
2023-03-17T18:33:22.126Z,5.72
2023-03-17T18:35:56.430Z,10.60
2023-03-17T18:38:38.274Z,11.43
2023-03-17T18:41:12.070Z,13.07
2023-03-17T18:43:44.889Z,11.65
2023-03-17T18:46:21.597Z,10.55
2023-03-17T18:48:53.570Z,11.55
2023-03-17T18:51:24.142Z,12.55
2023-03-17T18:53:58.686Z,14.88
2023-03-17T18:56:30.427Z,16.52
2023-03-17T18:59:06.369Z,39.72
2023-03-17T19:04:10.748Z,19.20
2023-03-17T19:07:09.649Z,19.52
2023-03-17T19:09:40.029Z,14.82
2023-03-17T19:12:52.736Z,15.90
2023-03-17T19:15:40.693Z,17.77
2023-03-17T19:18:12.841Z,19.63
2023-03-17T19:20:55.071Z,21.30
2023-03-17T19:23:26.731Z,25.33
2023-03-17T19:26:47.504Z,20.90
2023-03-17T19:29:18.835Z,19.30
2023-03-17T19:31:50.436Z,19.17
2023-03-17T19:34:30.735Z,22.88
2023-03-17T19:37:08.214Z,22.00
2023-03-17T19:40:39.429Z,22.00
2023-03-17T19:44:01.542Z,23.08
2023-03-17T19:47:28.471Z,21.15
2023-03-17T19:50:12.964Z,21.08
2023-03-17T19:52:57.006Z,21.75
2023-03-17T19:55:35.928Z,21.83
2023-03-17T19:58:11.616Z,23.83
2023-03-17T20:00:48.449Z,26.67
2023-03-17T20:03:18.345Z,26.95
2023-03-17T20:05:56.610Z,26.20
2023-03-17T20:08:36.413Z,23.92
2023-03-17T20:11:12.170Z,24.63
2023-03-17T20:13:43.868Z,21.42
2023-03-17T20:16:17.296Z,22.80
2023-03-17T20:18:53.641Z,24.08
2023-03-17T20:21:26.030Z,24.23
2023-03-17T20:23:59.360Z,22.52
2023-03-17T20:26:58.113Z,21.98
2023-03-17T20:29:30.231Z,21.35
2023-03-17T20:32:50.103Z,20.95
2023-03-17T20:36:31.574Z,19.30
2023-03-17T20:39:06.199Z,16.60
2023-03-17T20:41:50.135Z,17.45
2023-03-17T20:44:24.583Z,18.00
2023-03-17T20:47:03.752Z,17.02
2023-03-17T20:50:05.325Z,15.50
2023-03-17T20:52:41.579Z,14.98
2023-03-17T20:55:44.105Z,14.32
2023-03-17T21:02:33.701Z,12.48
2023-03-17T21:05:33.331Z,13.85
2023-03-17T21:08:21.685Z,12.43
2023-03-17T21:11:40.763Z,12.38
2023-03-17T21:14:15.352Z,12.23
2023-03-17T21:21:01.179Z,11.60
2023-03-17T21:23:35.700Z,11.70
2023-03-17T21:26:12.940Z,11.73
2023-03-17T21:28:46.059Z,12.80
2023-03-17T21:31:17.721Z,12.48
2023-03-17T21:33:52.376Z,14.38
2023-03-17T21:36:22.363Z,15.23
2023-03-17T21:38:56.871Z,12.80
2023-03-17T21:41:33.419Z,12.82
2023-03-17T21:44:40.189Z,12.85
2023-03-17T21:48:02.975Z,12.93
2023-03-17T21:50:37.507Z,12.77
2023-03-17T21:53:14.172Z,14.52
2023-03-17T21:56:12.372Z,14.85
2023-03-17T21:58:42.953Z,14.18
2023-03-17T22:01:17.581Z,12.95
2023-03-17T22:03:52.144Z,12.73
2023-03-17T22:06:27.410Z,10.23
2023-03-17T22:08:56.928Z,10.70
2023-03-17T22:11:27.401Z,11.75
2023-03-17T22:14:02.684Z,10.65
2023-03-17T22:16:34.802Z,12.18
2023-03-17T22:19:07.266Z,10.27
2023-03-17T22:21:42.960Z,10.45
2023-03-17T22:24:17.693Z,9.88
2023-03-17T22:26:51.366Z,9.63
2023-03-17T22:29:27.749Z,9.25
2023-03-17T22:31:59.934Z,9.68
2023-03-17T22:34:50.387Z,10.45
2023-03-17T22:37:23.201Z,10.95
2023-03-17T22:39:54.628Z,11.00
2023-03-17T22:42:28.432Z,10.90
2023-03-17T22:44:59.128Z,10.90
2023-03-17T22:47:32.365Z,11.30
2023-03-17T22:50:00.771Z,10.00
2023-03-17T22:52:31.888Z,10.70
2023-03-17T22:55:05.882Z,11.57
2023-03-17T22:57:38.544Z,10.82
2023-03-17T23:00:14.058Z,10.07
2023-03-17T23:03:33.963Z,10.15
2023-03-17T23:06:06.848Z,9.77
2023-03-17T23:08:39.082Z,10.18
2023-03-17T23:11:10.706Z,9.88
2023-03-17T23:13:41.685Z,10.13
2023-03-17T23:16:38.938Z,10.73
2023-03-17T23:19:10.187Z,9.85
2023-03-17T23:22:04.998Z,8.95
2023-03-17T23:24:47.411Z,9.85
2023-03-17T23:27:47.140Z,9.82
2023-03-17T23:30:21.736Z,9.55
2023-03-17T23:33:45.039Z,9.32
2023-03-17T23:36:18.330Z,10.63
2023-03-17T23:39:11.975Z,11.30
2023-03-17T23:41:45.121Z,8.45
2023-03-17T23:44:38.961Z,9.52
2023-03-17T23:47:14.772Z,8.65
2023-03-17T23:49:43.200Z,8.30
2023-03-17T23:52:49.494Z,8.40
2023-03-17T23:55:23.343Z,7.10
2023-03-17T23:57:53.203Z,7.18
